Friday, May 25, 2018, 8:45 AM EDT
Back to Local

KBDL, Bradley International Airport

Location: Windsor Locks, CT, United States Lat: 41.933
Local Time: 8:45 AM EDT (12:45 GMT) Lon: -72.683
Time Zone: US/Eastern Elev: 173 ft

Show me the last for .
Show Decoded

2018-05-25 07:51 METAR KBDL 251151Z 16003KT 10SM FEW250 16/11 A3000 RMK AO2 SLP156 T01560111
                 10156 20111 58005 =
2018-05-25 06:51 METAR KBDL 251051Z 17003KT 10SM FEW250 13/11 A3001 RMK AO2 SLP160 T01330106 =
2018-05-25 05:51 METAR KBDL 250951Z 18005KT 10SM CLR 12/10 A3001 RMK AO2 SLP160 T01170100 =
2018-05-25 04:51 METAR KBDL 250851Z 18004KT 10SM FEW250 11/10 A3001 RMK AO2 SLP162 T01110100
                 56013 =
2018-05-25 03:51 METAR KBDL 250751Z 18005KT 10SM CLR 11/10 A3001 RMK AO2 SLP163 T01110100 =
2018-05-25 02:51 METAR KBDL 250651Z 16007KT 10SM CLR 12/11 A3003 RMK AO2 SLP167 T01170106 =
2018-05-25 01:51 METAR KBDL 250551Z 17005KT 10SM CLR 12/11 A3005 RMK AO2 SLP175 T01220106 10244
                 20122 58010 =
2018-05-25 00:51 METAR KBDL 250451Z 18007KT 10SM CLR 13/11 A3006 RMK AO2 SLP180 T01280111
                 402780111 =
2018-05-24 23:51 METAR KBDL 250351Z 17007KT 10SM CLR 13/11 A3007 RMK AO2 SLP184 T01330111 =
2018-05-24 22:51 METAR KBDL 250251Z 17008KT 10SM CLR 15/12 A3008 RMK AO2 SLP185 T01500117 50012 =
2018-05-24 21:51 METAR KBDL 250151Z 17008KT 10SM CLR 17/12 A3008 RMK AO2 SLP186 T01670122 =
2018-05-24 20:51 METAR KBDL 250051Z 16010KT 10SM CLR 19/12 A3006 RMK AO2 SLP179 T01890122 =
2018-05-24 19:51 METAR KBDL 242351Z 22004KT 10SM CLR 24/05 A3004 RMK AO2 SLP172 T02440050 10278
                 20244 55005 =
2018-05-24 18:51 METAR KBDL 242251Z 24007KT 10SM CLR 26/04 A3004 RMK AO2 SLP170 T02610039 =
2018-05-24 17:51 METAR KBDL 242151Z 00000KT 10SM CLR 27/03 A3004 RMK AO2 SLP172 T02720028 =
2018-05-24 16:51 METAR KBDL 242051Z VRB03KT 10SM CLR 27/03 A3006 RMK AO2 SLP177 T02720028 58010 =
2018-05-24 15:51 METAR KBDL 241951Z VRB03KT 10SM CLR 27/02 A3007 RMK AO2 SLP182 T02670022 =
2018-05-24 14:51 METAR KBDL 241851Z 35010G18KT 10SM FEW250 27/01 A3008 RMK AO2 SLP183 T02670011 =
2018-05-24 13:51 METAR KBDL 241751Z 36010G20KT 320V020 10SM FEW250 27/02 A3009 RMK AO2 SLP188
                 T02670017 10267 20183 57009 =
2018-05-24 12:51 METAR KBDL 241651Z 35010G18KT 10SM FEW250 26/M01 A3010 RMK AO2 SLP191 T02561006
                 =
2018-05-24 11:51 METAR KBDL 241551Z 36010G24KT 10SM FEW250 24/M01 A3011 RMK AO2 SLP193 T02441006
                 =
2018-05-24 10:51 METAR KBDL 241451Z 02008KT 10SM FEW250 23/04 A3012 RMK AO2 SLP197 T02330039
                 51005 =
2018-05-24 09:51 METAR KBDL 241351Z 02008KT 340V040 10SM FEW250 22/06 A3011 RMK AO2 SLP194
                 T02170061 =
2018-05-24 08:51 METAR KBDL 241251Z 35009KT 10SM FEW250 21/05 A3011 RMK AO2 SLP196 T02060050 =

Support USWX by starting your Amazon purchase here.